createdAt,value
2018-04-28T00:00:56.523Z,969.42
2018-04-28T00:01:56.761Z,969.43
2018-04-28T00:02:56.997Z,969.43
2018-04-28T00:03:57.236Z,969.47
2018-04-28T00:04:57.474Z,969.47
2018-04-28T00:05:57.713Z,969.46
2018-04-28T00:06:57.949Z,969.43
2018-04-28T00:07:58.246Z,969.46
2018-04-28T00:08:58.426Z,969.46
2018-04-28T00:09:58.663Z,969.49
2018-04-28T00:10:58.902Z,969.47
2018-04-28T00:11:59.140Z,969.46
2018-04-28T00:12:59.379Z,969.47
2018-04-28T00:13:59.615Z,969.50
2018-04-28T00:14:59.860Z,969.50
2018-04-28T00:16:00.093Z,969.55
2018-04-28T00:17:00.331Z,969.52
2018-04-28T00:18:00.570Z,969.52
2018-04-28T00:19:00.807Z,969.53
2018-04-28T00:20:01.046Z,969.53
2018-04-28T00:21:01.281Z,969.58
2018-04-28T00:22:01.523Z,969.54
2018-04-28T00:23:01.761Z,969.60
2018-04-28T00:24:02.000Z,969.56
2018-04-28T00:25:02.239Z,969.55
2018-04-28T00:26:02.483Z,969.53
2018-04-28T00:27:02.716Z,969.53
2018-04-28T00:28:02.954Z,969.60
2018-04-28T00:29:03.192Z,969.57
2018-04-28T00:30:03.429Z,969.60
2018-04-28T00:31:03.670Z,969.58
2018-04-28T00:32:03.982Z,969.57
2018-04-28T00:33:04.148Z,969.57
2018-04-28T00:34:04.386Z,969.61
2018-04-28T00:35:04.625Z,969.60
2018-04-28T00:36:04.864Z,969.61
2018-04-28T00:37:05.099Z,969.66
2018-04-28T00:38:05.336Z,969.67
2018-04-28T00:39:05.578Z,969.64
2018-04-28T00:40:05.812Z,969.65
2018-04-28T00:41:06.048Z,969.61
2018-04-28T00:42:06.286Z,969.67
2018-04-28T00:43:06.525Z,969.67
2018-04-28T00:44:06.762Z,969.70
2018-04-28T00:45:07.000Z,969.68
2018-04-28T00:46:07.239Z,969.63
2018-04-28T00:47:07.475Z,969.64
2018-04-28T00:48:07.719Z,969.67
2018-04-28T00:49:07.952Z,969.64
2018-04-28T00:50:08.191Z,969.69
2018-04-28T00:51:08.438Z,969.65
2018-04-28T00:52:08.667Z,969.66
2018-04-28T00:53:08.905Z,969.69
2018-04-28T00:54:09.143Z,969.64
2018-04-28T00:55:09.381Z,969.67
2018-04-28T00:56:09.618Z,969.65
2018-04-28T00:57:09.855Z,969.68
2018-04-28T00:58:10.094Z,969.70
2018-04-28T00:59:10.332Z,969.70
2018-04-28T01:00:10.572Z,969.69
2018-04-28T01:01:10.809Z,969.72
2018-04-28T01:02:11.058Z,969.74
2018-04-28T01:03:11.289Z,969.72
2018-04-28T01:04:11.523Z,969.78
2018-04-28T01:05:11.763Z,969.77
2018-04-28T01:06:12.001Z,969.79
2018-04-28T01:07:12.238Z,969.76
2018-04-28T01:08:12.477Z,969.80
2018-04-28T01:09:12.779Z,969.80
2018-04-28T01:10:12.953Z,969.78
2018-04-28T01:11:13.190Z,969.82
2018-04-28T01:12:13.429Z,969.78
2018-04-28T01:13:13.666Z,969.78
2018-04-28T01:14:13.902Z,969.81
2018-04-28T01:15:14.141Z,969.80
2018-04-28T01:16:14.384Z,969.86
2018-04-28T01:17:14.617Z,969.87
2018-04-28T01:18:14.857Z,969.87
2018-04-28T01:19:15.096Z,969.86
2018-04-28T01:20:15.338Z,969.91
2018-04-28T01:21:15.571Z,969.91
2018-04-28T01:22:15.810Z,969.98
2018-04-28T01:23:16.049Z,969.97
2018-04-28T01:24:16.286Z,970.00
2018-04-28T01:25:16.527Z,969.98
2018-04-28T01:26:16.764Z,969.99
2018-04-28T01:27:17.006Z,969.98
2018-04-28T01:28:17.243Z,969.97
2018-04-28T01:29:17.482Z,969.95
2018-04-28T01:30:17.720Z,970.04
2018-04-28T01:31:17.958Z,970.02
2018-04-28T01:32:18.196Z,970.03
2018-04-28T01:33:18.434Z,970.01
2018-04-28T01:34:18.672Z,970.04
2018-04-28T01:35:18.909Z,970.08
2018-04-28T01:36:19.146Z,970.09
2018-04-28T01:37:19.383Z,970.13
2018-04-28T01:38:19.620Z,970.12
2018-04-28T01:39:19.859Z,970.16
2018-04-28T01:40:20.098Z,970.14
2018-04-28T01:41:20.338Z,970.18
2018-04-28T01:42:20.573Z,970.20
2018-04-28T01:43:20.812Z,970.17
2018-04-28T01:44:21.051Z,970.17
2018-04-28T01:45:21.289Z,970.23
2018-04-28T01:46:21.527Z,970.19
2018-04-28T01:47:21.764Z,970.19
2018-04-28T01:48:22.001Z,970.18
2018-04-28T01:49:22.240Z,970.20
2018-04-28T01:50:22.477Z,970.23
2018-04-28T01:51:22.717Z,970.21
2018-04-28T01:52:22.955Z,970.23
2018-04-28T01:53:23.192Z,970.23
2018-04-28T01:54:23.431Z,970.26
2018-04-28T01:55:23.664Z,970.27
2018-04-28T01:56:23.901Z,970.28
2018-04-28T01:57:24.222Z,970.31
2018-04-28T01:58:24.377Z,970.26
2018-04-28T01:59:24.614Z,970.28
2018-04-28T02:00:24.852Z,970.24
2018-04-28T02:01:25.093Z,970.29
2018-04-28T02:02:25.330Z,970.29
2018-04-28T02:03:25.576Z,970.31
2018-04-28T02:04:25.807Z,970.31
2018-04-28T02:05:26.046Z,970.32
2018-04-28T02:06:26.285Z,970.31
2018-04-28T02:07:26.520Z,970.29
2018-04-28T02:08:26.763Z,970.31
2018-04-28T02:09:26.995Z,970.28
2018-04-28T02:10:27.233Z,970.30
2018-04-28T02:11:27.472Z,970.30
2018-04-28T02:12:27.710Z,970.34
2018-04-28T02:13:27.947Z,970.33
2018-04-28T02:14:28.187Z,970.34
2018-04-28T02:15:28.425Z,970.36
2018-04-28T02:16:28.660Z,970.36
2018-04-28T02:17:28.899Z,970.37
2018-04-28T02:18:29.136Z,970.39
2018-04-28T02:19:29.376Z,970.38
2018-04-28T02:20:29.614Z,970.40
2018-04-28T02:21:29.852Z,970.40
2018-04-28T02:22:30.091Z,970.42
2018-04-28T02:23:30.328Z,970.41
2018-04-28T02:24:30.566Z,970.44
2018-04-28T02:25:30.804Z,970.43
2018-04-28T02:26:31.042Z,970.43
2018-04-28T02:27:31.279Z,970.39
2018-04-28T02:28:31.516Z,970.44
2018-04-28T02:29:31.832Z,970.42
2018-04-28T02:30:31.994Z,970.44
2018-04-28T02:31:32.233Z,970.41
2018-04-28T02:32:32.471Z,970.41
2018-04-28T02:33:32.710Z,970.47
2018-04-28T02:34:32.947Z,970.42
2018-04-28T02:35:33.185Z,970.47
2018-04-28T02:36:33.422Z,970.47
2018-04-28T02:37:33.661Z,970.49
2018-04-28T02:38:33.898Z,970.49
2018-04-28T02:39:34.140Z,970.47
2018-04-28T02:40:34.375Z,970.52
2018-04-28T02:41:34.611Z,970.49
2018-04-28T02:42:34.849Z,970.51
2018-04-28T02:43:35.091Z,970.51
2018-04-28T02:44:35.328Z,970.51
2018-04-28T02:45:35.564Z,970.51
2018-04-28T02:46:35.803Z,970.50
2018-04-28T02:47:36.042Z,970.48
2018-04-28T02:48:36.285Z,970.53
2018-04-28T02:49:36.529Z,970.50
2018-04-28T02:50:36.760Z,970.55
2018-04-28T02:51:37.000Z,970.52
2018-04-28T02:52:37.237Z,970.55
2018-04-28T02:53:37.473Z,970.57
2018-04-28T02:54:37.712Z,970.53
2018-04-28T02:55:37.952Z,970.54
2018-04-28T02:56:38.189Z,970.54
2018-04-28T02:57:38.426Z,970.58
2018-04-28T02:58:38.666Z,970.53
2018-04-28T02:59:38.904Z,970.57
2018-04-28T03:00:39.139Z,970.56
2018-04-28T03:01:39.375Z,970.60
2018-04-28T03:02:39.618Z,970.61
2018-04-28T03:03:39.853Z,970.59
2018-04-28T03:04:40.092Z,970.59
2018-04-28T03:05:40.330Z,970.57
2018-04-28T03:06:40.569Z,970.59
2018-04-28T03:07:40.808Z,970.61
2018-04-28T03:08:41.045Z,970.62
2018-04-28T03:09:41.283Z,970.66
2018-04-28T03:10:41.519Z,970.64
2018-04-28T03:11:41.756Z,970.71
2018-04-28T03:12:41.993Z,970.67
2018-04-28T03:13:42.227Z,970.67
2018-04-28T03:14:42.464Z,970.69
2018-04-28T03:15:42.701Z,970.62
2018-04-28T03:16:42.940Z,970.69
2018-04-28T03:17:43.178Z,970.67
2018-04-28T03:18:43.421Z,970.70
2018-04-28T03:19:43.654Z,970.71
2018-04-28T03:20:43.893Z,970.67
2018-04-28T03:21:44.131Z,970.70
2018-04-28T03:22:44.369Z,970.68
2018-04-28T03:23:44.608Z,970.66
2018-04-28T03:24:44.845Z,970.70
2018-04-28T03:25:45.082Z,970.73
2018-04-28T03:26:45.320Z,970.74
2018-04-28T03:27:45.557Z,970.75
2018-04-28T03:28:45.798Z,970.76
2018-04-28T03:29:46.033Z,970.71
2018-04-28T03:30:46.269Z,970.76
2018-04-28T03:31:46.509Z,970.82
2018-04-28T03:32:46.748Z,970.81
2018-04-28T03:33:46.985Z,970.82
2018-04-28T03:34:47.235Z,970.85
2018-04-28T03:35:47.461Z,970.83
2018-04-28T03:36:47.699Z,970.85
2018-04-28T03:37:47.937Z,970.83
2018-04-28T03:38:48.175Z,970.85
2018-04-28T03:39:48.414Z,970.87
2018-04-28T03:40:48.651Z,970.89
2018-04-28T03:41:48.889Z,970.88
2018-04-28T03:42:49.125Z,970.92
2018-04-28T03:43:49.366Z,970.96
2018-04-28T03:44:49.600Z,970.97
2018-04-28T03:45:49.841Z,970.94
2018-04-28T03:46:50.080Z,971.01
2018-04-28T03:47:50.320Z,971.00
2018-04-28T03:48:50.557Z,970.96
2018-04-28T03:49:50.797Z,971.00
2018-04-28T03:50:51.034Z,971.03
2018-04-28T03:51:51.274Z,971.01
2018-04-28T03:52:51.510Z,971.02
2018-04-28T03:53:51.749Z,971.05
2018-04-28T03:54:51.987Z,971.00
2018-04-28T03:55:52.227Z,971.04
2018-04-28T03:56:52.466Z,971.07
2018-04-28T03:57:52.703Z,971.08
2018-04-28T03:58:52.944Z,971.10
2018-04-28T03:59:53.181Z,971.09
2018-04-28T04:00:53.421Z,971.13
2018-04-28T04:01:53.656Z,971.14
2018-04-28T04:02:53.894Z,971.13
2018-04-28T04:03:54.140Z,971.07
2018-04-28T04:04:54.375Z,971.16
2018-04-28T04:05:54.616Z,971.17
2018-04-28T04:06:54.857Z,971.18
2018-04-28T04:07:55.097Z,971.15
2018-04-28T04:08:55.336Z,971.19
2018-04-28T04:09:55.577Z,971.19
2018-04-28T04:10:55.813Z,971.24
2018-04-28T04:11:56.051Z,971.26
2018-04-28T04:12:56.290Z,971.26
2018-04-28T04:13:56.530Z,971.24
2018-04-28T04:14:56.768Z,971.24
2018-04-28T04:15:57.007Z,971.27
2018-04-28T04:16:57.249Z,971.27
2018-04-28T04:17:57.485Z,971.28
2018-04-28T04:18:57.724Z,971.28
2018-04-28T04:19:57.966Z,971.29
2018-04-28T04:20:58.208Z,971.26
2018-04-28T04:21:58.442Z,971.30
2018-04-28T04:22:58.683Z,971.31
2018-04-28T04:23:58.921Z,971.34
2018-04-28T04:24:59.163Z,971.34
2018-04-28T04:25:59.398Z,971.34
2018-04-28T04:26:59.634Z,971.38
2018-04-28T04:27:59.877Z,971.36
2018-04-28T04:29:00.114Z,971.41
2018-04-28T04:30:00.350Z,971.42
2018-04-28T04:31:00.589Z,971.41
2018-04-28T04:32:00.889Z,971.42
2018-04-28T04:33:01.066Z,971.47
2018-04-28T04:34:01.304Z,971.46
2018-04-28T04:35:01.555Z,971.49
2018-04-28T04:36:01.781Z,971.49
2018-04-28T04:37:02.022Z,971.46
2018-04-28T04:38:02.259Z,971.51
2018-04-28T04:39:02.497Z,971.52
2018-04-28T04:40:02.737Z,971.51
2018-04-28T04:41:02.975Z,971.50
2018-04-28T04:42:03.217Z,971.52
2018-04-28T04:43:03.453Z,971.51
2018-04-28T04:44:03.692Z,971.54
2018-04-28T04:45:03.930Z,971.55
2018-04-28T04:46:04.167Z,971.58
2018-04-28T04:47:04.409Z,971.64
2018-04-28T04:48:04.642Z,971.64
2018-04-28T04:49:04.884Z,971.66
2018-04-28T04:50:05.124Z,971.69
2018-04-28T04:51:05.362Z,971.68
2018-04-28T04:52:05.605Z,971.68
2018-04-28T04:53:05.841Z,971.67
2018-04-28T04:54:06.083Z,971.69
2018-04-28T04:55:06.323Z,971.73
2018-04-28T04:56:06.562Z,971.71
2018-04-28T04:57:06.800Z,971.73
2018-04-28T04:58:07.042Z,971.74
2018-04-28T04:59:07.276Z,971.76
2018-04-28T05:00:07.512Z,971.79
2018-04-28T05:01:07.749Z,971.80
2018-04-28T05:02:07.984Z,971.85
2018-04-28T05:03:08.231Z,971.80
2018-04-28T05:04:08.464Z,971.85
2018-04-28T05:05:08.703Z,971.85
2018-04-28T05:06:08.946Z,971.90
2018-04-28T05:07:09.181Z,971.89
2018-04-28T05:08:09.419Z,971.89
2018-04-28T05:09:09.659Z,971.94
2018-04-28T05:10:09.895Z,971.95
2018-04-28T05:11:10.134Z,971.93
2018-04-28T05:12:10.378Z,972.00
2018-04-28T05:13:10.616Z,972.02
2018-04-28T05:14:10.855Z,972.03
2018-04-28T05:15:11.092Z,972.08
2018-04-28T05:16:11.330Z,972.10
2018-04-28T05:17:11.571Z,972.05
2018-04-28T05:18:11.813Z,972.12
2018-04-28T05:19:12.059Z,972.11
2018-04-28T05:20:12.287Z,972.14
2018-04-28T05:21:12.527Z,972.16
2018-04-28T05:22:12.766Z,972.11
2018-04-28T05:23:13.001Z,972.15
2018-04-28T05:24:13.243Z,972.15
2018-04-28T05:25:13.482Z,972.18
2018-04-28T05:26:13.722Z,972.21
2018-04-28T05:27:13.959Z,972.20
2018-04-28T05:28:14.198Z,972.24
2018-04-28T05:29:14.437Z,972.21
2018-04-28T05:30:14.676Z,972.24
2018-04-28T05:31:14.912Z,972.24
2018-04-28T05:32:15.154Z,972.20
2018-04-28T05:33:15.393Z,972.25
2018-04-28T05:34:15.629Z,972.28
2018-04-28T05:35:15.869Z,972.29
2018-04-28T05:36:16.110Z,972.30
2018-04-28T05:37:16.410Z,972.33
2018-04-28T05:38:16.662Z,972.37
2018-04-28T05:39:16.900Z,972.29
2018-04-28T05:40:17.140Z,972.35
2018-04-28T05:41:17.379Z,972.36
2018-04-28T05:42:17.618Z,972.36
2018-04-28T05:43:17.857Z,972.36
2018-04-28T05:44:18.097Z,972.42
2018-04-28T05:45:18.337Z,972.34
2018-04-28T05:46:18.577Z,972.43
2018-04-28T05:47:18.816Z,972.38
2018-04-28T05:48:19.062Z,972.39
2018-04-28T05:49:19.294Z,972.34
2018-04-28T05:50:19.533Z,972.37
2018-04-28T05:51:19.775Z,972.40
2018-04-28T05:52:20.014Z,972.43
2018-04-28T05:53:20.281Z,972.41
2018-04-28T05:54:20.523Z,972.39
2018-04-28T05:55:20.768Z,972.52
2018-04-28T05:56:21.001Z,972.51
2018-04-28T05:57:21.291Z,972.56
2018-04-28T05:58:21.538Z,972.52
2018-04-28T05:59:21.776Z,972.49
2018-04-28T06:00:22.015Z,972.55
2018-04-28T06:01:22.255Z,972.52
2018-04-28T06:02:22.496Z,972.53
2018-04-28T06:03:22.743Z,972.57
2018-04-28T06:04:22.976Z,972.59
2018-04-28T06:05:23.217Z,972.55
2018-04-28T06:06:23.457Z,972.62
2018-04-28T06:07:23.698Z,972.62
2018-04-28T06:08:23.937Z,972.59
2018-04-28T06:09:24.178Z,972.64
2018-04-28T06:10:24.422Z,972.61
2018-04-28T06:11:24.659Z,972.59
2018-04-28T06:12:24.900Z,972.61
2018-04-28T06:13:25.141Z,972.57
2018-04-28T06:14:25.393Z,972.58
2018-04-28T06:15:25.622Z,972.56
2018-04-28T06:16:25.865Z,972.59
2018-04-28T06:17:26.102Z,972.58
2018-04-28T06:18:26.342Z,972.63
2018-04-28T06:19:26.583Z,972.62
2018-04-28T06:20:26.825Z,972.59
2018-04-28T06:21:27.066Z,972.58
2018-04-28T06:22:27.308Z,972.65
2018-04-28T06:23:27.557Z,972.57
2018-04-28T06:24:27.791Z,972.64
2018-04-28T06:25:28.035Z,972.62
2018-04-28T06:26:28.278Z,972.60
2018-04-28T06:27:28.513Z,972.66
2018-04-28T06:28:28.751Z,972.62
2018-04-28T06:29:28.999Z,972.61
2018-04-28T06:30:29.236Z,972.67
2018-04-28T06:31:29.477Z,972.67
2018-04-28T06:32:29.720Z,972.69
2018-04-28T06:33:29.960Z,972.79
2018-04-28T06:34:30.195Z,972.69
2018-04-28T06:35:30.445Z,972.69
2018-04-28T06:36:30.670Z,972.66
2018-04-28T06:37:30.921Z,972.72
2018-04-28T06:38:31.147Z,972.67
2018-04-28T06:39:31.386Z,972.74
2018-04-28T06:40:31.630Z,972.74
2018-04-28T06:41:31.869Z,972.70
2018-04-28T06:42:32.108Z,972.70
2018-04-28T06:43:32.352Z,972.71
2018-04-28T06:44:32.580Z,972.64
2018-04-28T06:45:32.837Z,972.61
2018-04-28T06:46:33.056Z,972.70
2018-04-28T06:47:33.298Z,972.71
2018-04-28T06:48:33.539Z,972.75
2018-04-28T06:49:33.781Z,972.82
2018-04-28T06:50:34.025Z,972.76
2018-04-28T06:51:34.258Z,972.80
2018-04-28T06:52:34.510Z,972.75
2018-04-28T06:53:34.748Z,972.83
2018-04-28T06:54:34.989Z,972.79
2018-04-28T06:55:35.232Z,972.89
2018-04-28T06:56:35.479Z,972.81
2018-04-28T06:57:35.721Z,972.84
2018-04-28T06:58:36.025Z,972.84
2018-04-28T06:59:36.206Z,972.84
2018-04-28T07:00:36.446Z,972.85
2018-04-28T07:01:36.687Z,972.77
2018-04-28T07:02:36.929Z,972.90
2018-04-28T07:03:37.172Z,972.81
2018-04-28T07:04:37.472Z,972.81
2018-04-28T07:05:37.648Z,972.80
2018-04-28T07:06:37.887Z,972.80
2018-04-28T07:07:38.149Z,972.79
2018-04-28T07:08:38.364Z,972.74
2018-04-28T07:09:38.614Z,972.80
2018-04-28T07:10:38.847Z,972.86
2018-04-28T07:11:39.087Z,972.91
2018-04-28T07:12:39.334Z,972.81
2018-04-28T07:13:39.573Z,972.75
2018-04-28T07:14:39.801Z,972.77
2018-04-28T07:15:40.044Z,972.80
2018-04-28T07:16:40.300Z,972.93
2018-04-28T07:17:40.539Z,972.89
2018-04-28T07:18:40.772Z,972.84
2018-04-28T07:19:41.012Z,972.90
2018-04-28T07:20:41.255Z,972.92
2018-04-28T07:21:41.507Z,972.70
2018-04-28T07:22:41.751Z,972.92
2018-04-28T07:23:41.971Z,972.81
2018-04-28T07:24:42.220Z,972.91
2018-04-28T07:25:42.463Z,973.07
2018-04-28T07:26:42.708Z,972.91
2018-04-28T07:27:42.949Z,973.03
2018-04-28T07:28:43.194Z,973.06
2018-04-28T07:29:43.438Z,973.12
2018-04-28T07:30:43.682Z,973.17
2018-04-28T07:31:43.924Z,972.89
2018-04-28T07:32:44.168Z,972.94
2018-04-28T07:33:44.413Z,972.92
2018-04-28T07:34:44.659Z,972.95
2018-04-28T07:35:44.901Z,973.01
2018-04-28T07:36:45.146Z,973.00
2018-04-28T07:37:45.393Z,973.02
2018-04-28T07:38:45.639Z,972.94
2018-04-28T07:39:45.884Z,973.00
2018-04-28T07:40:46.133Z,973.06
2018-04-28T07:41:46.376Z,973.09
2018-04-28T07:42:46.621Z,973.00
2018-04-28T07:43:46.866Z,973.14
2018-04-28T07:44:47.111Z,973.29
2018-04-28T07:45:47.361Z,973.07
2018-04-28T07:46:47.607Z,973.09
2018-04-28T07:47:47.851Z,973.03
2018-04-28T07:48:48.100Z,973.17
2018-04-28T07:49:48.338Z,973.02
2018-04-28T07:50:48.584Z,973.06
2018-04-28T07:51:48.830Z,973.06
2018-04-28T07:52:49.078Z,973.01
2018-04-28T07:53:49.324Z,973.14
2018-04-28T07:54:49.573Z,973.07
2018-04-28T07:55:49.825Z,973.01
2018-04-28T07:56:50.073Z,973.13
2018-04-28T07:57:50.312Z,973.19
2018-04-28T07:58:50.556Z,973.03
2018-04-28T07:59:50.804Z,972.98
2018-04-28T08:00:51.051Z,973.10
2018-04-28T08:01:51.297Z,973.15
2018-04-28T08:02:51.545Z,972.99
2018-04-28T08:03:51.790Z,972.98
2018-04-28T08:04:52.038Z,973.02
2018-04-28T08:05:52.283Z,972.96
2018-04-28T08:06:52.533Z,972.96
2018-04-28T08:07:52.776Z,973.13
2018-04-28T08:08:53.022Z,973.00
2018-04-28T08:09:53.272Z,973.09
2018-04-28T08:10:53.520Z,973.10
2018-04-28T08:11:53.769Z,973.01
2018-04-28T08:12:54.017Z,973.07
2018-04-28T08:13:54.264Z,973.16
2018-04-28T08:14:54.512Z,973.17
2018-04-28T08:15:54.761Z,973.16
2018-04-28T08:16:55.188Z,973.19
2018-04-28T08:17:55.438Z,973.19
2018-04-28T08:18:55.686Z,973.15
2018-04-28T08:19:55.934Z,973.23
2018-04-28T08:20:56.182Z,973.28
2018-04-28T08:21:56.429Z,973.32
2018-04-28T08:22:56.682Z,973.20
2018-04-28T08:23:56.935Z,973.40
2018-04-28T08:24:57.182Z,973.32
2018-04-28T08:25:57.429Z,973.43
2018-04-28T08:26:57.681Z,973.34
2018-04-28T08:27:57.928Z,973.31
2018-04-28T08:28:58.181Z,973.32
2018-04-28T08:29:58.424Z,973.30
2018-04-28T08:30:58.671Z,973.31
2018-04-28T08:31:58.918Z,973.32
2018-04-28T08:32:59.169Z,973.34
2018-04-28T08:33:59.413Z,973.38
2018-04-28T08:34:59.666Z,973.45
2018-04-28T08:35:59.917Z,973.37
2018-04-28T08:37:00.241Z,973.49
2018-04-28T08:38:00.424Z,973.51
2018-04-28T08:39:00.674Z,973.32
2018-04-28T08:40:00.940Z,973.37
2018-04-28T08:41:01.176Z,973.17
2018-04-28T08:42:01.427Z,973.42
2018-04-28T08:43:01.676Z,973.50
2018-04-28T08:44:01.924Z,973.50
2018-04-28T08:45:02.172Z,973.56
2018-04-28T08:46:02.425Z,973.67
2018-04-28T08:47:02.657Z,973.90
2018-04-28T08:48:02.909Z,974.10
2018-04-28T08:49:03.157Z,974.31
2018-04-28T08:50:03.406Z,974.37
2018-04-28T08:51:03.694Z,974.19
2018-04-28T08:52:03.905Z,973.93
2018-04-28T08:53:04.152Z,973.68
2018-04-28T08:54:04.401Z,973.73
2018-04-28T08:55:04.651Z,973.66
2018-04-28T08:56:04.902Z,973.69
2018-04-28T08:57:05.150Z,973.67
2018-04-28T08:58:05.401Z,973.69
2018-04-28T08:59:05.650Z,973.68
2018-04-28T09:00:05.901Z,973.72
2018-04-28T09:01:06.143Z,973.64
2018-04-28T09:02:06.399Z,973.65
2018-04-28T09:03:06.647Z,973.70
2018-04-28T09:04:06.895Z,973.63
2018-04-28T09:05:07.149Z,973.59
2018-04-28T09:06:07.411Z,973.62
2018-04-28T09:07:07.653Z,973.68
2018-04-28T09:08:07.910Z,973.61
2018-04-28T09:09:08.156Z,973.58
2018-04-28T09:10:08.401Z,973.62
2018-04-28T09:11:08.652Z,973.61
2018-04-28T09:12:08.901Z,973.67
2018-04-28T09:13:09.206Z,973.70
2018-04-28T09:14:09.394Z,973.66
2018-04-28T09:15:09.645Z,973.71
2018-04-28T09:16:09.899Z,973.71
2018-04-28T09:17:10.151Z,973.80
2018-04-28T09:18:10.404Z,973.87
2018-04-28T09:19:10.656Z,973.69
2018-04-28T09:20:10.907Z,973.87
2018-04-28T09:21:11.161Z,973.96
2018-04-28T09:22:11.412Z,974.11
2018-04-28T09:23:11.668Z,974.02
2018-04-28T09:24:11.920Z,974.27
2018-04-28T09:25:12.170Z,974.41
2018-04-28T09:26:12.431Z,974.53
2018-04-28T09:27:12.680Z,974.48
2018-04-28T09:28:12.933Z,974.43
2018-04-28T09:29:13.178Z,974.37
2018-04-28T09:30:13.428Z,974.27
2018-04-28T09:31:13.683Z,974.26
2018-04-28T09:32:13.927Z,974.30
2018-04-28T09:33:14.183Z,974.42
2018-04-28T09:34:14.431Z,974.37
2018-04-28T09:35:14.686Z,974.06
2018-04-28T09:36:14.951Z,973.92
2018-04-28T09:37:15.183Z,974.00
2018-04-28T09:38:15.438Z,973.99
2018-04-28T09:39:15.681Z,973.93
2018-04-28T09:40:15.934Z,973.91
2018-04-28T09:41:16.184Z,974.25
2018-04-28T09:42:16.441Z,974.59
2018-04-28T09:43:16.686Z,974.83
2018-04-28T09:44:16.945Z,974.84
2018-04-28T09:45:17.188Z,974.80
2018-04-28T09:46:17.455Z,975.05
2018-04-28T09:47:17.697Z,975.26
2018-04-28T09:48:17.934Z,975.16
2018-04-28T09:49:18.182Z,975.16
2018-04-28T09:50:18.430Z,975.11
2018-04-28T09:51:18.675Z,975.06
2018-04-28T09:52:18.931Z,975.04
2018-04-28T09:53:19.173Z,974.96
2018-04-28T09:54:19.427Z,974.79
2018-04-28T09:55:19.686Z,974.93
2018-04-28T09:56:19.932Z,974.91
2018-04-28T09:57:20.186Z,974.95
2018-04-28T09:58:20.439Z,974.88
2018-04-28T09:59:20.694Z,974.87
2018-04-28T10:00:20.948Z,974.78
2018-04-28T10:01:21.200Z,974.58
2018-04-28T10:02:21.451Z,974.77
2018-04-28T10:03:21.702Z,974.74
2018-04-28T10:04:21.956Z,974.72
2018-04-28T10:05:22.208Z,974.63
2018-04-28T10:06:22.467Z,974.57
2018-04-28T10:07:22.726Z,974.45
2018-04-28T10:08:22.953Z,974.42
2018-04-28T10:09:23.205Z,974.00
2018-04-28T10:10:23.458Z,974.11
2018-04-28T10:11:23.721Z,974.02
2018-04-28T10:12:23.959Z,974.17
2018-04-28T10:13:24.209Z,974.31
2018-04-28T10:14:24.456Z,974.48
2018-04-28T10:15:24.709Z,974.20
2018-04-28T10:16:24.963Z,974.38
2018-04-28T10:17:25.216Z,974.42
2018-04-28T10:18:25.465Z,974.36
2018-04-28T10:19:25.721Z,974.28
2018-04-28T10:20:26.098Z,974.22
2018-04-28T10:21:26.223Z,974.23
2018-04-28T10:22:26.469Z,974.27
2018-04-28T10:23:26.731Z,974.28
2018-04-28T10:24:26.978Z,974.24
2018-04-28T10:25:28.149Z,974.21
2018-04-28T10:26:27.468Z,974.31
2018-04-28T10:27:27.724Z,974.31
2018-04-28T10:28:27.976Z,974.34
2018-04-28T10:29:28.232Z,974.12
2018-04-28T10:30:28.468Z,974.27
2018-04-28T10:31:28.722Z,974.24
2018-04-28T10:32:28.973Z,974.26
2018-04-28T10:33:29.231Z,974.33
2018-04-28T10:34:29.482Z,974.23
2018-04-28T10:35:29.726Z,974.22
2018-04-28T10:36:29.984Z,974.06
2018-04-28T10:37:30.228Z,973.85
2018-04-28T10:38:30.485Z,973.93
2018-04-28T10:39:30.734Z,973.95
2018-04-28T10:40:30.985Z,973.94
2018-04-28T10:41:31.239Z,973.85
2018-04-28T10:42:31.491Z,974.04
2018-04-28T10:43:31.744Z,973.92
2018-04-28T10:44:31.994Z,973.76
2018-04-28T10:45:32.253Z,973.52
2018-04-28T10:46:32.494Z,973.61
2018-04-28T10:47:32.807Z,973.74
2018-04-28T10:48:32.995Z,973.72
2018-04-28T10:49:33.260Z,973.69
2018-04-28T10:50:33.506Z,973.69
2018-04-28T10:51:33.757Z,973.76
2018-04-28T10:52:34.014Z,973.79
2018-04-28T10:53:34.312Z,973.81
2018-04-28T10:54:34.508Z,973.58
2018-04-28T10:55:34.763Z,973.61
2018-04-28T10:56:34.998Z,973.61
2018-04-28T10:57:35.250Z,973.74
2018-04-28T10:58:35.499Z,973.73
2018-04-28T10:59:35.750Z,973.90
2018-04-28T11:00:36.006Z,973.98
2018-04-28T11:01:36.271Z,974.14
2018-04-28T11:02:36.503Z,974.12
2018-04-28T11:03:36.758Z,973.57
2018-04-28T11:04:37.001Z,973.90
2018-04-28T11:05:37.311Z,973.91
2018-04-28T11:06:37.507Z,974.30
2018-04-28T11:07:37.760Z,973.98
2018-04-28T11:08:38.013Z,973.81
2018-04-28T11:09:38.269Z,973.84
2018-04-28T11:10:38.519Z,973.66
2018-04-28T11:11:38.772Z,973.85
2018-04-28T11:12:39.022Z,973.90
2018-04-28T11:13:39.275Z,973.93
2018-04-28T11:14:39.524Z,973.91
2018-04-28T11:15:39.764Z,973.93
2018-04-28T11:16:40.021Z,973.86
2018-04-28T11:17:40.277Z,973.95
2018-04-28T11:18:40.529Z,973.79
2018-04-28T11:19:40.786Z,973.66
2018-04-28T11:20:41.033Z,974.00
2018-04-28T11:21:41.301Z,974.06
2018-04-28T11:22:41.541Z,973.64
2018-04-28T11:23:41.784Z,973.50
2018-04-28T11:24:42.040Z,973.50
2018-04-28T11:25:42.322Z,973.82
2018-04-28T11:26:42.550Z,973.86
2018-04-28T11:27:42.802Z,973.75
2018-04-28T11:28:43.051Z,973.74
2018-04-28T11:29:43.303Z,973.84
2018-04-28T11:30:43.558Z,973.94
2018-04-28T11:31:43.819Z,973.79
2018-04-28T11:32:44.068Z,973.54
2018-04-28T11:33:44.353Z,973.40
2018-04-28T11:34:44.578Z,973.43
2018-04-28T11:35:44.829Z,973.58
2018-04-28T11:36:45.087Z,973.54
2018-04-28T11:37:45.337Z,973.03
2018-04-28T11:38:45.585Z,973.61
2018-04-28T11:39:45.846Z,973.49
2018-04-28T11:40:46.102Z,973.41
2018-04-28T11:41:46.353Z,973.34
2018-04-28T11:42:46.605Z,973.62
2018-04-28T11:43:46.853Z,973.44
2018-04-28T11:44:47.120Z,973.21
2018-04-28T11:45:47.374Z,973.26
2018-04-28T11:46:47.625Z,973.17
2018-04-28T11:47:47.891Z,973.03
2018-04-28T11:48:48.132Z,972.93
2018-04-28T11:49:48.385Z,972.76
2018-04-28T11:50:48.638Z,973.14
2018-04-28T11:51:48.894Z,972.91
2018-04-28T11:52:49.157Z,972.91
2018-04-28T11:53:49.406Z,973.33
2018-04-28T11:54:49.659Z,973.34
2018-04-28T11:55:49.909Z,973.47
2018-04-28T11:56:50.161Z,973.51
2018-04-28T11:57:50.416Z,972.95
2018-04-28T11:58:50.686Z,972.95
2018-04-28T11:59:50.918Z,973.11
2018-04-28T12:00:51.177Z,973.22
2018-04-28T12:01:51.416Z,973.02
2018-04-28T12:02:51.665Z,973.17
2018-04-28T12:03:51.919Z,973.14
2018-04-28T12:04:52.175Z,973.25
2018-04-28T12:05:52.470Z,973.21
2018-04-28T12:06:52.675Z,973.16
2018-04-28T12:07:52.930Z,973.01
2018-04-28T12:08:53.185Z,972.91
2018-04-28T12:09:53.445Z,972.90
2018-04-28T12:10:53.678Z,973.03
2018-04-28T12:11:53.927Z,973.06
2018-04-28T12:12:54.193Z,973.08
2018-04-28T12:13:54.439Z,973.17
2018-04-28T12:14:54.692Z,973.27
2018-04-28T12:15:54.943Z,973.16
2018-04-28T12:16:55.195Z,973.07
2018-04-28T12:17:55.449Z,973.01
2018-04-28T12:18:55.704Z,972.99
2018-04-28T12:19:55.955Z,972.94
2018-04-28T12:20:56.205Z,973.12
2018-04-28T12:21:56.454Z,973.21
2018-04-28T12:22:56.707Z,973.18
2018-04-28T12:23:56.958Z,973.11
2018-04-28T12:24:57.215Z,972.94
2018-04-28T12:25:57.461Z,973.22
2018-04-28T12:26:57.714Z,973.33
2018-04-28T12:27:57.965Z,973.30
2018-04-28T12:28:58.217Z,973.24
2018-04-28T12:29:58.508Z,973.15
2018-04-28T12:30:58.719Z,973.34
2018-04-28T12:31:58.972Z,973.12